Time;durP1;ratioP1;P1;durP2;ratioP2;P2;SDS_P1;SDS_P2;PMS_P1;PMS_P2;Temp;Humidity;BMP_temperature;BMP_pressure;BME280_temperature;BME280_humidity;BME280_pressure;Samples;Min_cycle;Max_cycle;Signal;HPM_P1;HPM_P2
2022/04/03 00:00:27;;;;;;;9.98;5.00;;;;;;;1.35;72.05;98559.50;5088048;28;20036;-71
2022/04/03 00:02:57;;;;;;;8.80;4.82;;;;;;;1.36;71.92;98567.28;5088504;28;20307;-70
2022/04/03 00:05:28;;;;;;;8.57;4.97;;;;;;;1.36;72.06;98564.66;5087479;28;20312;-70
2022/04/03 00:07:59;;;;;;;6.68;4.60;;;;;;;1.38;71.85;98568.09;5088002;28;20049;-71
2022/04/03 00:10:27;;;;;;;7.20;5.25;;;;;;;0.76;71.38;98510.78;5087529;28;20246;-71
2022/04/03 00:12:58;;;;;;;10.23;5.55;;;;;;;1.40;71.22;98579.34;5070355;28;20224;-71
2022/04/03 00:15:27;;;;;;;10.18;5.07;;;;;;;1.41;71.59;98582.81;5086960;28;20105;-71
2022/04/03 00:17:57;;;;;;;6.45;4.32;;;;;;;1.43;71.41;98589.69;5087736;28;20217;-71
2022/04/03 00:20:29;;;;;;;7.20;5.18;;;;;;;1.48;71.51;98592.16;5087379;28;20042;-70
2022/04/03 00:22:58;;;;;;;9.82;5.50;;;;;;;1.49;71.28;98592.09;5069759;28;20300;-71
2022/04/03 00:25:29;;;;;;;8.73;6.15;;;;;;;1.47;71.35;98580.00;5087547;28;20177;-71
2022/04/03 00:27:58;;;;;;;6.82;4.95;;;;;;;1.44;71.56;98588.78;5087245;28;20036;-71
2022/04/03 00:30:28;;;;;;;8.80;4.97;;;;;;;1.47;71.66;98582.59;5069889;28;20075;-71
2022/04/03 00:32:58;;;;;;;10.63;5.82;;;;;;;1.46;71.37;98589.59;5087419;28;20037;-71
2022/04/03 00:35:30;;;;;;;8.52;5.95;;;;;;;1.43;71.73;98584.47;5069292;28;20063;-70
2022/04/03 00:37:58;;;;;;;8.15;6.00;;;;;;;1.45;71.43;98592.25;5070141;28;20213;-71
2022/04/03 00:40:29;;;;;;;9.80;6.00;;;;;;;1.44;71.67;98588.78;5087232;28;20040;-71
2022/04/03 00:42:59;;;;;;;9.15;5.85;;;;;;;1.46;71.75;98588.72;5069777;28;20067;-71
2022/04/03 00:45:29;;;;;;;7.75;5.53;;;;;;;1.43;71.55;98583.59;5087117;28;20051;-71
2022/04/03 00:48:00;;;;;;;9.48;7.00;;;;;;;-0.43;71.23;98269.28;5087103;28;20099;-71
2022/04/03 00:50:31;;;;;;;15.65;8.13;;;;;;;1.39;71.97;98588.06;5086898;28;20048;-71
2022/04/03 00:52:59;;;;;;;9.85;7.13;;;;;;;1.40;71.61;98586.31;5086983;28;20064;-71
2022/04/03 00:55:29;;;;;;;9.88;6.47;;;;;;;1.44;71.42;98577.47;5086858;28;20067;-71
2022/04/03 00:58:00;;;;;;;8.82;6.40;;;;;;;1.44;71.53;98585.31;5069394;28;20036;-71
2022/04/03 01:00:30;;;;;;;10.20;6.55;;;;;;;1.46;71.45;98586.13;5069660;28;20052;-71
2022/04/03 01:03:02;;;;;;;9.88;6.03;;;;;;;1.51;71.15;98582.47;5069356;28;20200;-70
2022/04/03 01:05:31;;;;;;;7.10;5.25;;;;;;;1.19;71.15;98535.59;5085992;28;20204;-71
2022/04/03 01:08:00;;;;;;;7.78;5.72;;;;;;;0.55;70.95;98454.06;5086371;28;20040;-71
2022/04/03 01:10:30;;;;;;;7.78;6.03;;;;;;;1.44;71.22;98588.78;5086668;28;20056;-71
2022/04/03 01:13:00;;;;;;;16.50;7.22;;;;;;;1.46;70.82;98600.03;5086585;28;20047;-71
2022/04/03 01:15:30;;;;;;;12.13;6.72;;;;;;;1.49;70.71;98593.88;5069049;28;20048;-71
2022/04/03 01:18:00;;;;;;;8.25;6.22;;;;;;;1.53;70.80;98601.56;5069179;28;20040;-71
2022/04/03 01:20:32;;;;;;;9.15;6.50;;;;;;;1.48;70.69;98595.63;5069035;28;20107;-71
2022/04/03 01:23:01;;;;;;;8.07;6.10;;;;;;;1.49;70.55;98596.47;5086127;28;20068;-71
2022/04/03 01:25:32;;;;;;;10.07;6.40;;;;;;;1.49;70.50;98591.25;5068252;28;20044;-70
2022/04/03 01:28:01;;;;;;;9.80;7.07;;;;;;;1.52;70.35;98594.63;5086206;28;20039;-71
2022/04/03 01:30:31;;;;;;;8.88;6.82;;;;;;;1.50;70.48;98591.22;5086317;28;20047;-70
2022/04/03 01:33:01;;;;;;;9.43;8.35;;;;;;;1.53;70.51;98595.47;5068595;28;20048;-71
2022/04/03 01:35:31;;;;;;;7.93;5.93;;;;;;;1.54;70.52;98592.81;5085967;28;20036;-71
2022/04/03 01:38:01;;;;;;;10.38;7.70;;;;;;;1.31;70.19;98548.28;5068746;28;20056;-71
2022/04/03 01:40:35;;;;;;;8.45;6.43;;;;;;;1.54;70.36;98589.34;5086186;28;20040;-71
2022/04/03 01:43:08;;;;;;;11.07;6.55;;;;;;;-0.86;70.08;98193.31;5086132;28;20047;-70
2022/04/03 01:45:38;;;;;;;10.07;6.88;;;;;;;1.48;70.44;98593.00;5086239;28;20078;-71
2022/04/03 01:48:09;;;;;;;7.63;6.22;;;;;;;1.44;70.39;98591.41;5085776;28;20040;-70
2022/04/03 01:50:37;;;;;;;9.77;5.57;;;;;;;1.42;70.43;98592.34;5085965;28;20029;-71
2022/04/03 01:53:07;;;;;;;10.07;6.90;;;;;;;1.16;70.21;98548.75;5085717;28;20063;-71
2022/04/03 01:55:40;;;;;;;7.95;6.50;;;;;;;1.40;69.92;98592.38;5085964;28;20048;-71
2022/04/03 01:58:09;;;;;;;10.45;7.10;;;;;;;1.39;69.86;98608.97;5085927;28;20028;-71
2022/04/03 02:00:39;;;;;;;9.48;7.20;;;;;;;1.42;69.77;98595.81;5085580;28;20083;-71
2022/04/03 02:03:08;;;;;;;9.85;6.60;;;;;;;1.43;69.86;98587.06;5068266;28;20063;-71
2022/04/03 02:05:38;;;;;;;9.15;6.38;;;;;;;1.41;69.83;98598.47;5085321;28;20098;-71
2022/04/03 02:08:08;;;;;;;10.77;7.53;;;;;;;1.41;69.88;98601.94;5086043;28;20029;-71
2022/04/03 02:10:39;;;;;;;8.38;7.38;;;;;;;1.38;69.73;98594.19;5085782;28;20100;-71
2022/04/03 02:13:09;;;;;;;8.70;7.18;;;;;;;1.39;69.62;98602.88;5086014;28;20029;-71
2022/04/03 02:15:39;;;;;;;11.55;7.03;;;;;;;1.42;69.71;98598.41;5085706;28;20071;-71
2022/04/03 02:18:09;;;;;;;9.73;6.15;;;;;;;1.40;69.59;98608.06;5085939;28;20047;-71
2022/04/03 02:20:38;;;;;;;8.13;6.63;;;;;;;-0.53;68.93;98291.28;5085445;28;20243;-71
2022/04/03 02:23:08;;;;;;;15.55;6.93;;;;;;;1.40;69.11;98608.06;5067712;28;20394;-71
2022/04/03 02:25:40;;;;;;;8.00;6.38;;;;;;;1.35;69.24;98606.47;5085156;28;20233;-71
2022/04/03 02:28:10;;;;;;;9.40;6.00;;;;;;;1.37;69.07;98615.13;5085184;28;20304;-71
2022/04/03 02:30:39;;;;;;;10.02;6.35;;;;;;;1.35;68.71;98611.69;5085719;28;20063;-72
2022/04/03 02:33:09;;;;;;;7.03;5.88;;;;;;;1.40;68.91;98617.66;5085461;28;20289;-71
2022/04/03 02:35:39;;;;;;;9.15;6.57;;;;;;;0.69;68.53;98511.00;5085533;28;20071;-71
2022/04/03 02:38:09;;;;;;;8.43;6.05;;;;;;;1.34;68.39;98626.50;5070473;28;20098;-71
2022/04/03 02:40:41;;;;;;;8.52;5.88;;;;;;;1.35;68.46;98623.00;5089171;28;20048;-71
2022/04/03 02:43:11;;;;;;;8.32;6.13;;;;;;;1.35;68.37;98625.63;5089473;28;20043;-71
2022/04/03 02:45:40;;;;;;;8.10;6.22;;;;;;;1.35;68.44;98627.38;5089542;28;20028;-71
2022/04/03 02:48:10;;;;;;;10.50;5.47;;;;;;;1.35;68.12;98636.06;5089353;28;20103;-72
2022/04/03 02:50:40;;;;;;;8.57;6.20;;;;;;;1.33;67.66;98634.38;5072111;28;20029;-71
2022/04/03 02:53:10;;;;;;;8.65;5.50;;;;;;;1.33;67.67;98642.22;5071734;28;20045;-71
2022/04/03 02:55:41;;;;;;;7.70;5.22;;;;;;;1.31;67.42;98630.97;5089517;28;20033;-71
2022/04/03 02:58:11;;;;;;;7.00;5.70;;;;;;;1.07;67.33;98593.38;5089003;28;20044;-71
2022/04/03 03:00:40;;;;;;;9.05;5.60;;;;;;;1.35;67.12;98651.72;5088916;28;20086;-71
2022/04/03 03:03:10;;;;;;;6.53;4.40;;;;;;;1.36;67.09;98650.81;5071504;28;20060;-71
2022/04/03 03:05:42;;;;;;;7.63;5.38;;;;;;;1.35;66.66;98648.25;5088660;28;20052;-71
2022/04/03 03:08:11;;;;;;;6.93;5.10;;;;;;;1.33;66.53;98652.66;5089274;28;20070;-70
2022/04/03 03:10:42;;;;;;;7.43;4.53;;;;;;;1.36;66.74;98655.19;5071507;28;20036;-71
2022/04/03 03:13:12;;;;;;;9.10;4.20;;;;;;;1.03;66.64;98605.66;5088639;28;20040;-71
2022/04/03 03:15:41;;;;;;;8.30;4.63;;;;;;;1.04;66.84;98606.53;5088901;28;20222;-71
2022/04/03 03:18:11;;;;;;;9.23;6.15;;;;;;;1.35;66.88;98656.09;5088545;28;20177;-71
2022/04/03 03:20:41;;;;;;;9.18;5.78;;;;;;;1.38;66.91;98669.06;5088806;28;20303;-71
2022/04/03 03:23:11;;;;;;;11.73;6.57;;;;;;;1.41;67.24;98664.59;5070998;28;20314;-70
2022/04/03 03:25:43;;;;;;;7.05;4.95;;;;;;;1.03;66.70;98607.44;5088702;28;20106;-71
2022/04/03 03:28:12;;;;;;;5.93;4.28;;;;;;;1.36;66.86;98663.03;5070968;28;20048;-71
2022/04/03 03:30:43;;;;;;;9.13;5.45;;;;;;;1.35;66.91;98672.59;5088361;28;20096;-71
2022/04/03 03:33:12;;;;;;;8.15;4.13;;;;;;;1.33;66.81;98676.16;5055043;28;20048;-70
2022/04/03 03:35:42;;;;;;;11.20;5.13;;;;;;;1.30;66.35;98679.72;5071088;28;20103;-70
2022/04/03 03:38:13;;;;;;;6.40;4.30;;;;;;;1.30;66.82;98677.09;5088186;28;20208;-70
2022/04/03 03:40:44;;;;;;;10.85;5.55;;;;;;;1.19;66.66;98674.81;5088440;28;20094;-71
2022/04/03 03:43:12;;;;;;;8.10;4.70;;;;;;;0.91;66.38;98643.41;5088206;28;20220;-71
2022/04/03 03:45:43;;;;;;;6.32;4.68;;;;;;;0.94;66.68;98642.47;5088311;28;20335;-72
2022/04/03 03:48:13;;;;;;;10.23;5.47;;;;;;;1.20;66.84;98696.53;5088280;28;20239;-71
2022/04/03 03:50:43;;;;;;;7.72;5.03;;;;;;;1.18;66.24;98703.56;5070254;28;20228;-71
2022/04/03 03:53:13;;;;;;;8.00;4.75;;;;;;;1.20;66.39;98707.84;5087963;28;20041;-71
2022/04/03 03:55:45;;;;;;;6.70;3.72;;;;;;;1.21;66.53;98716.53;5088119;28;20338;-71
2022/04/03 03:58:13;;;;;;;7.80;4.90;;;;;;;1.16;66.24;98721.88;5088069;28;20036;-71
2022/04/03 04:00:43;;;;;;;7.32;5.07;;;;;;;1.16;66.39;98721.88;5070537;28;20052;-71
2022/04/03 04:03:13;;;;;;;8.60;4.47;;;;;;;1.15;66.17;98732.34;5088057;28;20048;-71
2022/04/03 04:05:44;;;;;;;10.82;5.03;;;;;;;1.16;66.44;98739.28;5066584;28;20071;-71
2022/04/03 04:08:14;;;;;;;6.55;4.50;;;;;;;1.10;66.33;98742.91;5068358;28;20037;-71
2022/04/03 04:10:45;;;;;;;6.28;4.85;;;;;;;1.10;66.40;98765.53;5067497;28;20064;-71
2022/04/03 04:13:14;;;;;;;6.97;4.93;;;;;;;1.13;66.61;98749.81;5067770;28;20036;-71
2022/04/03 04:15:44;;;;;;;8.90;4.22;;;;;;;1.12;66.90;98754.16;5067709;28;20091;-71
2022/04/03 04:18:14;;;;;;;8.35;5.47;;;;;;;0.66;66.64;98668.44;5066578;28;20071;-71
2022/04/03 04:20:44;;;;;;;8.25;5.05;;;;;;;1.17;66.42;98754.03;5067634;28;20036;-70
2022/04/03 04:23:14;;;;;;;6.63;4.07;;;;;;;1.15;66.66;98759.31;5067580;28;20037;-71
2022/04/03 04:25:46;;;;;;;8.48;5.97;;;;;;;0.77;66.65;98708.13;5067161;28;20305;-70
2022/04/03 04:28:14;;;;;;;7.65;5.18;;;;;;;1.05;67.20;98759.59;5067834;28;20300;-71
2022/04/03 04:30:45;;;;;;;7.90;6.05;;;;;;;0.97;67.17;98769.38;5067188;28;20041;-71
2022/04/03 04:33:15;;;;;;;8.23;6.80;;;;;;;0.94;67.48;98779.00;5067567;28;20029;-71
2022/04/03 04:35:45;;;;;;;6.97;5.55;;;;;;;0.99;67.48;98780.63;5067071;28;20045;-70
2022/04/03 04:38:15;;;;;;;8.68;5.70;;;;;;;0.99;67.44;98778.03;5067290;28;20086;-71
2022/04/03 04:40:46;;;;;;;8.95;5.53;;;;;;;0.64;67.41;98735.41;5066971;28;20049;-71
2022/04/03 04:43:15;;;;;;;7.68;5.65;;;;;;;0.93;67.58;98787.72;5066908;28;20051;-71
2022/04/03 04:45:45;;;;;;;9.50;5.97;;;;;;;0.97;67.50;98791.09;5066601;28;20075;-71
2022/04/03 04:48:16;;;;;;;9.82;6.22;;;;;;;0.98;67.38;98797.19;5067125;28;20064;-71
2022/04/03 04:50:46;;;;;;;8.13;5.82;;;;;;;-1.36;67.13;98408.66;5066840;28;20071;-71
2022/04/03 04:53:16;;;;;;;6.85;5.07;;;;;;;0.92;67.08;98793.81;5066750;28;20043;-71
2022/04/03 04:55:47;;;;;;;7.50;6.18;;;;;;;0.92;66.94;98796.44;5066737;28;20090;-71
2022/04/03 04:58:16;;;;;;;7.18;5.45;;;;;;;0.89;66.74;98806.94;5066887;28;20048;-71
2022/04/03 05:00:46;;;;;;;6.85;5.05;;;;;;;0.91;66.43;98809.53;5066546;28;20087;-71
2022/04/03 05:03:16;;;;;;;10.27;6.60;;;;;;;-0.66;66.28;98589.16;5066494;28;20056;-71
2022/04/03 05:05:47;;;;;;;7.28;5.85;;;;;;;0.55;66.09;98759.13;5065544;28;20048;-71
2022/04/03 05:08:16;;;;;;;7.65;5.47;;;;;;;0.78;65.91;98814.19;5066720;28;20201;-71
2022/04/03 05:10:50;;;;;;;9.57;5.22;;;;;;;0.46;66.01;98769.78;5066732;28;20272;-71
2022/04/03 05:13:25;;;;;;;6.75;4.50;;;;;;;0.73;65.82;98821.25;5066362;28;20045;-71
2022/04/03 05:15:57;;;;;;;5.88;4.40;;;;;;;0.74;65.78;98827.34;5066575;28;20049;-71
2022/04/03 05:18:30;;;;;;;9.77;6.43;;;;;;;0.75;65.89;98829.06;5065791;28;20266;-70
2022/04/03 05:21:02;;;;;;;7.03;4.63;;;;;;;0.77;65.19;98828.13;5065406;28;20284;-71
2022/04/03 05:23:34;;;;;;;6.78;5.07;;;;;;;-0.10;64.94;98762.34;5066123;28;20044;-71
2022/04/03 05:26:10;;;;;;;7.55;5.00;;;;;;;0.78;65.13;98835.06;5066058;28;20083;-71
2022/04/03 05:28:42;;;;;;;14.73;4.93;;;;;;;0.49;64.98;98794.03;5066347;28;20040;-71
2022/04/03 05:31:14;;;;;;;8.63;4.32;;;;;;;0.89;64.73;98850.44;5066284;28;20087;-71
2022/04/03 05:33:46;;;;;;;7.18;5.15;;;;;;;0.90;63.81;98846.94;5065899;28;20040;-71
2022/04/03 05:36:18;;;;;;;7.03;4.78;;;;;;;0.91;63.34;98849.50;5065454;28;20066;-71
2022/04/03 05:38:51;;;;;;;8.13;5.38;;;;;;;1.01;63.66;98863.19;5065056;28;20087;-71
2022/04/03 05:41:24;;;;;;;6.45;4.03;;;;;;;1.04;63.56;98862.25;5065828;28;20090;-71
2022/04/03 05:43:56;;;;;;;7.38;4.97;;;;;;;1.08;63.25;98858.69;5066100;28;20083;-71
2022/04/03 05:46:29;;;;;;;5.63;4.13;;;;;;;1.07;62.34;98862.19;5065951;28;20087;-71
2022/04/03 05:49:01;;;;;;;7.95;4.25;;;;;;;1.11;62.47;98859.47;5065255;28;20045;-71
2022/04/03 05:51:34;;;;;;;7.57;4.57;;;;;;;1.17;62.19;98864.53;5065575;28;20079;-71
2022/04/03 05:54:06;;;;;;;12.68;5.32;;;;;;;1.21;62.11;98867.91;5065596;28;20099;-71
2022/04/03 05:56:39;;;;;;;5.85;4.78;;;;;;;-1.51;61.50;98398.59;5065629;28;20045;-70
2022/04/03 05:59:12;;;;;;;6.25;4.22;;;;;;;1.16;61.39;98835.84;5064800;28;20037;-71
2022/04/03 06:01:44;;;;;;;9.30;5.95;;;;;;;1.73;60.98;98877.03;5065571;28;20079;-71
2022/04/03 06:04:16;;;;;;;6.32;5.13;;;;;;;2.46;58.71;98875.78;5071437;28;20247;-71
2022/04/03 06:06:48;;;;;;;6.70;4.18;;;;;;;3.73;55.37;98875.13;5085760;28;20097;-71
2022/04/03 06:09:21;;;;;;;6.35;4.55;;;;;;;4.67;53.58;98857.66;5068097;28;20056;-71
2022/04/03 06:11:54;;;;;;;8.05;4.45;;;;;;;5.22;52.02;98865.97;5085029;28;20082;-71
2022/04/03 06:14:27;;;;;;;6.15;4.45;;;;;;;5.56;51.72;98873.31;5085494;28;20086;-71
2022/04/03 06:16:59;;;;;;;7.25;4.22;;;;;;;5.66;50.97;98876.41;5085702;28;20048;-71
2022/04/03 06:19:31;;;;;;;5.18;3.88;;;;;;;4.42;50.47;98654.88;5085726;28;20036;-71
2022/04/03 06:22:04;;;;;;;6.18;4.93;;;;;;;3.65;51.23;98546.13;5085385;28;20243;-71
2022/04/03 06:24:36;;;;;;;7.68;4.50;;;;;;;5.66;51.32;98881.66;5085328;28;20232;-71
2022/04/03 06:27:10;;;;;;;8.88;4.35;;;;;;;5.69;51.49;98898.16;5067710;28;20040;-71
2022/04/03 06:29:42;;;;;;;5.20;4.15;;;;;;;5.24;51.38;98853.63;5067866;28;20239;-71
2022/04/03 06:32:14;;;;;;;8.10;5.13;;;;;;;5.49;52.42;98894.66;5067460;28;20308;-70
2022/04/03 06:34:46;;;;;;;5.72;3.83;;;;;;;5.60;51.68;98901.19;5085515;28;20044;-71
2022/04/03 06:37:19;;;;;;;5.80;3.95;;;;;;;5.68;51.93;98903.47;5085425;28;20048;-72
2022/04/03 06:39:51;;;;;;;6.05;4.35;;;;;;;5.82;52.79;98905.50;5085200;28;20048;-71
2022/04/03 06:42:25;;;;;;;4.47;3.72;;;;;;;5.73;50.43;98906.75;5085562;28;20045;-71
2022/04/03 06:44:57;;;;;;;7.43;4.00;;;;;;;5.51;53.17;98856.88;5069004;28;20045;-70
2022/04/03 06:47:31;;;;;;;6.75;4.25;;;;;;;5.53;53.62;98894.47;5085438;28;20086;-71
2022/04/03 06:50:04;;;;;;;8.75;4.18;;;;;;;5.52;53.38;98915.56;5068019;28;20052;-71
2022/04/03 06:52:37;;;;;;;7.50;4.43;;;;;;;5.22;55.49;98929.03;5085495;28;20040;-70
2022/04/03 06:55:10;;;;;;;6.65;4.40;;;;;;;4.80;53.78;98924.53;5068781;28;20044;-71
2022/04/03 06:57:44;;;;;;;10.93;4.30;;;;;;;4.70;55.48;98932.81;5085394;28;20048;-71
2022/04/03 07:00:17;;;;;;;7.75;3.92;;;;;;;4.30;55.09;98897.56;5085305;28;20048;-72
2022/04/03 07:02:51;;;;;;;9.27;4.88;;;;;;;4.57;54.82;98947.31;5085081;28;20051;-71
2022/04/03 07:05:24;;;;;;;8.63;5.13;;;;;;;3.73;55.63;98851.53;5084822;28;20106;-71
2022/04/03 07:07:56;;;;;;;8.05;4.40;;;;;;;4.45;55.52;98967.84;5085155;28;20052;-71
2022/04/03 07:10:29;;;;;;;9.88;4.65;;;;;;;4.46;54.74;98966.06;5085194;28;20086;-72
2022/04/03 07:13:02;;;;;;;7.18;4.30;;;;;;;4.48;54.60;98972.13;5084854;28;20044;-71
2022/04/03 07:15:34;;;;;;;6.75;4.85;;;;;;;4.55;55.43;98973.59;5084762;28;20044;-71
2022/04/03 07:18:07;;;;;;;7.40;4.55;;;;;;;4.61;54.54;98980.41;5085231;28;20040;-71
2022/04/03 07:20:39;;;;;;;7.63;4.30;;;;;;;4.73;53.85;98987.81;5084834;28;20044;-71
2022/04/03 07:23:11;;;;;;;7.97;4.82;;;;;;;4.46;53.79;98934.59;5067704;28;20288;-71
2022/04/03 07:25:42;;;;;;;8.80;4.63;;;;;;;4.68;53.54;98984.50;5087516;28;20303;-71
2022/04/03 07:28:13;;;;;;;6.65;4.05;;;;;;;4.72;54.10;98983.47;5088359;28;20067;-71
2022/04/03 07:30:42;;;;;;;6.55;4.60;;;;;;;3.23;53.03;98727.56;5071268;28;20040;-71
2022/04/03 07:33:12;;;;;;;7.93;5.18;;;;;;;4.81;54.18;98997.13;5071004;28;20036;-71
2022/04/03 07:35:42;;;;;;;6.32;4.18;;;;;;;4.82;52.70;98990.09;5088263;28;20063;-71
2022/04/03 07:38:12;;;;;;;9.35;4.75;;;;;;;4.80;52.97;99008.53;5088212;28;20251;-72
2022/04/03 07:40:42;;;;;;;5.97;4.05;;;;;;;4.87;52.38;99014.41;5070987;28;20196;-71
2022/04/03 07:43:16;;;;;;;7.43;3.97;;;;;;;4.85;51.91;99010.13;5088163;28;20335;-71
2022/04/03 07:45:49;;;;;;;8.43;4.25;;;;;;;5.02;53.05;99016.50;5088348;28;20090;-71
2022/04/03 07:48:18;;;;;;;8.07;4.95;;;;;;;3.35;52.57;98771.66;5088187;28;20064;-71
2022/04/03 07:50:48;;;;;;;7.68;6.30;;;;;;;4.65;52.72;98976.75;5088300;28;20041;-71
2022/04/03 07:53:18;;;;;;;7.80;4.93;;;;;;;3.98;52.72;98889.97;5087950;28;20040;-72
2022/04/03 07:55:48;;;;;;;8.10;4.15;;;;;;;3.93;52.84;98902.41;5088209;28;20036;-72
2022/04/03 07:58:20;;;;;;;8.43;5.00;;;;;;;4.68;52.54;99031.75;5088209;28;20052;-72
2022/04/03 08:00:48;;;;;;;7.22;4.65;;;;;;;4.58;52.98;99040.88;5070833;28;20107;-71
2022/04/03 08:03:19;;;;;;;5.60;4.25;;;;;;;4.56;51.66;99043.56;5088269;28;20041;-71
2022/04/03 08:05:49;;;;;;;6.40;4.60;;;;;;;4.61;52.02;99039.00;5087573;28;20057;-71
2022/04/03 08:08:19;;;;;;;6.35;4.28;;;;;;;4.55;51.76;99049.72;5087610;28;20044;-71
2022/04/03 08:10:49;;;;;;;7.35;4.43;;;;;;;3.61;52.01;98966.41;5087923;28;20048;-71
2022/04/03 08:13:21;;;;;;;8.52;6.18;;;;;;;4.15;51.62;99003.00;5087639;28;20082;-72
2022/04/03 08:15:49;;;;;;;6.57;4.07;;;;;;;4.45;51.96;99058.81;5069694;28;20053;-72
2022/04/03 08:18:22;;;;;;;8.05;4.72;;;;;;;4.46;52.06;99055.28;5087773;28;20090;-72
2022/04/03 08:20:51;;;;;;;6.53;5.10;;;;;;;4.40;52.26;99064.22;5087278;28;20123;-71
2022/04/03 08:23:19;;;;;;;8.32;4.20;;;;;;;4.50;51.81;99062.16;5070211;28;20040;-71
2022/04/03 08:25:49;;;;;;;6.78;4.57;;;;;;;4.48;51.18;99066.59;5087189;28;20271;-72
2022/04/03 08:28:22;;;;;;;7.75;5.65;;;;;;;4.57;50.53;99076.75;5087533;28;20319;-72
2022/04/03 08:30:50;;;;;;;7.53;4.82;;;;;;;4.53;50.72;99082.19;5087248;28;20086;-72
2022/04/03 08:33:20;;;;;;;6.45;4.53;;;;;;;4.27;51.22;99035.84;5069570;28;20300;-71
2022/04/03 08:35:51;;;;;;;5.75;3.67;;;;;;;4.75;50.61;99085.75;5086727;28;20047;-71
2022/04/03 08:38:20;;;;;;;6.82;4.63;;;;;;;4.97;50.40;99088.50;5070119;28;20063;-72
2022/04/03 08:40:50;;;;;;;6.97;4.30;;;;;;;5.23;50.41;99093.63;5087312;28;20108;-71
2022/04/03 08:43:22;;;;;;;6.60;4.50;;;;;;;5.40;48.03;99091.22;5053660;28;20059;-71
2022/04/03 08:45:53;;;;;;;6.78;4.60;;;;;;;5.57;48.91;99092.34;5086872;28;20064;-71
2022/04/03 08:48:26;;;;;;;;;;;;;;;5.72;46.79;99097.84;5087251;28;20041;-72
2022/04/03 08:51:01;;;;;;;7.25;4.78;;;;;;;5.90;49.60;99085.75;5086818;28;19916;-71
2022/04/03 08:53:34;;;;;;;7.40;5.28;;;;;;;5.38;48.35;98982.69;5086790;28;20041;-71
2022/04/03 08:56:06;;;;;;;5.88;4.47;;;;;;;6.19;48.09;99100.34;5087009;28;20036;-71
2022/04/03 08:58:40;;;;;;;10.13;6.82;;;;;;;6.17;47.57;99089.03;5086763;28;20240;-71
2022/04/03 09:01:12;;;;;;;6.35;4.60;;;;;;;6.23;48.32;99103.69;5086661;28;20090;-71
2022/04/03 09:03:45;;;;;;;6.57;5.50;;;;;;;6.35;47.62;99095.28;5086632;28;20338;-72
2022/04/03 09:06:19;;;;;;;8.50;5.07;;;;;;;5.11;46.74;98866.41;5086556;28;20076;-71
2022/04/03 09:08:51;;;;;;;6.25;4.70;;;;;;;6.57;46.13;99093.47;5086312;28;20051;-71
2022/04/03 09:11:28;;;;;;;7.18;4.63;;;;;;;6.75;45.57;99104.97;5086479;28;20207;-72
2022/04/03 09:14:14;;;;;;;6.25;4.53;;;;;;;6.89;43.94;99109.66;5069251;28;20040;-72
2022/04/03 09:16:46;;;;;;;6.00;4.30;;;;;;;7.01;45.63;99103.84;5086289;28;20041;-72
2022/04/03 09:19:24;;;;;;;7.68;5.75;;;;;;;6.88;45.78;99094.78;5086178;28;20048;-71
2022/04/03 09:21:56;;;;;;;7.25;5.15;;;;;;;7.46;45.22;99097.44;5068964;28;20036;-72
2022/04/03 09:24:29;;;;;;;7.75;4.75;;;;;;;7.50;45.49;99089.31;5086038;28;20138;-71
2022/04/03 09:27:03;;;;;;;6.82;5.22;;;;;;;7.46;44.34;99058.75;5085984;28;20048;-72
2022/04/03 09:29:37;;;;;;;7.55;5.13;;;;;;;7.72;43.69;99097.09;5068551;28;20040;-72
2022/04/03 09:32:11;;;;;;;6.38;4.47;;;;;;;7.67;45.36;99101.72;5086267;28;20048;-71
2022/04/03 09:34:45;;;;;;;9.52;5.90;;;;;;;7.41;44.82;99116.13;5085964;28;20090;-72
2022/04/03 09:37:17;;;;;;;7.43;4.72;;;;;;;7.35;45.29;99109.34;5085983;28;20037;-72
2022/04/03 09:39:50;;;;;;;6.45;4.60;;;;;;;7.19;45.69;99116.22;5068525;28;20086;-71
2022/04/03 09:42:23;;;;;;;9.88;5.20;;;;;;;7.06;46.04;99110.63;5086197;28;20041;-72
2022/04/03 09:44:57;;;;;;;6.47;4.97;;;;;;;6.98;44.87;99104.84;5068524;28;20041;-71
2022/04/03 09:47:32;;;;;;;8.23;5.03;;;;;;;7.08;45.42;99102.66;5085153;28;20040;-71
2022/04/03 09:50:07;;;;;;;6.35;5.32;;;;;;;6.97;45.63;99116.31;5085810;28;20090;-71
2022/04/03 09:52:43;;;;;;;7.95;5.65;;;;;;;6.15;45.62;98982.97;5085802;28;20040;-71
2022/04/03 09:55:17;;;;;;;8.07;5.43;;;;;;;7.05;45.69;99114.19;5085928;28;20040;-72
2022/04/03 09:58:01;;;;;;;8.63;6.32;;;;;;;7.06;45.54;99136.13;5085648;28;20235;-71
2022/04/03 10:00:37;;;;;;;7.53;5.50;;;;;;;5.93;44.87;98974.28;5085523;28;20044;-71
2022/04/03 10:03:12;;;;;;;9.38;5.63;;;;;;;6.84;45.91;99125.69;5085324;28;20098;-72
2022/04/03 10:05:44;;;;;;;7.93;6.43;;;;;;;6.68;46.66;99120.19;5085429;28;20052;-71
2022/04/03 10:08:15;;;;;;;7.95;5.38;;;;;;;6.62;46.51;99127.50;5085967;28;20029;-72
2022/04/03 10:10:47;;;;;;;6.55;4.90;;;;;;;5.15;45.74;98927.56;5085384;28;20103;-72
2022/04/03 10:13:15;;;;;;;11.05;6.95;;;;;;;6.17;46.65;99136.38;5085236;28;20312;-71
2022/04/03 10:15:46;;;;;;;11.30;6.80;;;;;;;6.07;45.97;99137.69;5085595;28;20337;-72
2022/04/03 10:18:15;;;;;;;9.02;6.43;;;;;;;5.86;46.93;99131.50;5086043;28;20090;-72
2022/04/03 10:20:46;;;;;;;8.77;6.22;;;;;;;5.84;47.58;99127.22;5085539;28;20103;-72
2022/04/03 10:23:16;;;;;;;7.05;5.50;;;;;;;5.56;48.20;99090.63;5085927;28;20029;-71
2022/04/03 10:25:48;;;;;;;9.38;6.95;;;;;;;5.74;47.63;99134.63;5067822;28;20040;-71
2022/04/03 10:28:20;;;;;;;7.10;5.75;;;;;;;5.65;47.37;99146.34;5084808;28;20068;-72
2022/04/03 10:31:00;;;;;;;7.88;6.35;;;;;;;5.55;45.52;99152.00;5067506;28;20047;-71
2022/04/03 10:33:38;;;;;;;9.93;6.43;;;;;;;5.48;46.78;99148.75;5085166;28;20289;-71
2022/04/03 10:36:12;;;;;;;9.30;7.15;;;;;;;5.38;48.06;99145.63;5085232;28;20082;-71
2022/04/03 10:38:47;;;;;;;9.07;7.38;;;;;;;5.35;47.35;99151.00;5085095;28;20044;-72
2022/04/03 10:41:28;;;;;;;7.95;6.95;;;;;;;4.08;45.80;98978.75;5085166;28;20086;-72
2022/04/03 10:44:18;;;;;;;8.30;7.47;;;;;;;5.05;46.04;99149.47;5085100;28;20041;-72
2022/04/03 10:47:20;;;;;;;11.38;7.85;;;;;;;4.98;46.81;99154.09;5084942;28;20298;-71
2022/04/03 10:50:04;;;;;;;8.90;7.00;;;;;;;4.90;47.01;99155.28;5067510;28;20104;-72
2022/04/03 10:53:03;;;;;;;11.50;7.95;;;;;;;4.77;46.36;99165.31;5067523;28;20037;-71
2022/04/03 10:55:37;;;;;;;6.90;6.03;;;;;;;4.71;48.78;99161.16;5030854;28;20084;-71
2022/04/03 10:58:17;;;;;;;9.93;7.63;;;;;;;4.65;46.85;99158.72;5085380;28;20063;-72
2022/04/03 11:00:45;;;;;;;7.22;6.38;;;;;;;4.68;48.04;99156.00;5071335;28;20056;-71
2022/04/03 11:03:36;;;;;;;6.55;5.68;;;;;;;4.61;45.91;99151.88;5071628;28;20307;-72
2022/04/03 11:06:39;;;;;;;9.45;6.30;;;;;;;4.64;46.08;99156.16;5051305;28;20045;-71
2022/04/03 11:09:14;;;;;;;8.65;6.15;;;;;;;4.75;47.01;99165.38;5068762;28;20087;-71
2022/04/03 11:11:55;;;;;;;9.93;7.35;;;;;;;4.84;46.03;99152.84;5068542;28;20240;-71
2022/04/03 11:14:56;;;;;;;6.45;5.50;;;;;;;4.87;45.89;99164.09;5068770;28;20284;-71
2022/04/03 11:17:49;;;;;;;8.40;5.78;;;;;;;4.88;45.76;99154.44;5068713;28;20158;-71
2022/04/03 11:20:38;;;;;;;7.20;5.35;;;;;;;4.71;45.74;99119.13;5051207;28;20052;-71
2022/04/03 11:23:18;;;;;;;8.00;5.82;;;;;;;5.02;46.68;99158.34;5068347;28;20232;-71
2022/04/03 11:25:46;;;;;;;8.20;5.18;;;;;;;4.90;45.97;99165.78;5068018;28;20049;-71
2022/04/03 11:28:18;;;;;;;8.63;5.53;;;;;;;4.71;46.57;99174.28;5051091;28;20029;-71
2022/04/03 11:30:47;;;;;;;6.22;4.65;;;;;;;4.68;46.81;99166.50;5068499;28;20293;-71
2022/04/03 11:33:17;;;;;;;7.05;5.28;;;;;;;4.70;46.33;99162.06;5068296;28;20029;-71
2022/04/03 11:35:48;;;;;;;7.97;5.68;;;;;;;4.72;46.34;99164.63;5068328;28;20043;-71
2022/04/03 11:38:17;;;;;;;12.50;6.75;;;;;;;3.65;47.29;98968.03;5068167;28;20091;-71
2022/04/03 11:40:47;;;;;;;7.28;6.20;;;;;;;4.77;47.32;99168.81;5051127;28;20040;-71
2022/04/03 11:43:19;;;;;;;7.78;5.60;;;;;;;4.80;47.13;99162.59;5068005;28;20041;-71
2022/04/03 11:45:54;;;;;;;6.82;6.03;;;;;;;4.84;46.61;99185.22;5050272;28;20057;-71
2022/04/03 11:48:29;;;;;;;8.88;6.18;;;;;;;4.81;47.30;99173.03;5068024;28;20041;-71
2022/04/03 11:51:06;;;;;;;;;;;;;;;4.71;45.75;99179.53;5068257;28;20041;-71
2022/04/03 11:53:40;;;;;;;10.80;5.57;;;;;;;4.54;47.28;99171.34;5068102;28;20085;-71
2022/04/03 11:56:15;;;;;;;8.55;5.65;;;;;;;4.55;47.95;99182.72;5067961;28;20041;-71
2022/04/03 11:58:49;;;;;;;7.82;5.53;;;;;;;4.42;47.71;99192.75;5067632;28;20045;-72
2022/04/03 12:01:25;;;;;;;8.10;5.57;;;;;;;4.34;47.41;99186.91;5067720;28;20052;-70
2022/04/03 12:04:01;;;;;;;7.63;5.13;;;;;;;4.29;47.94;99194.06;5070699;28;20048;-71